createdAt,value
2022-11-23T00:01:28.641Z,85.00
2022-11-23T00:03:57.438Z,85.00
2022-11-23T00:06:25.226Z,85.00
2022-11-23T00:08:53.084Z,84.90
2022-11-23T00:11:21.290Z,85.00
2022-11-23T00:13:48.609Z,85.00
2022-11-23T00:16:18.120Z,85.00
2022-11-23T00:18:45.187Z,85.10
2022-11-23T00:21:16.975Z,85.10
2022-11-23T00:26:51.756Z,84.90
2022-11-23T00:29:18.735Z,85.00
2022-11-23T00:31:45.443Z,85.00
2022-11-23T00:34:26.110Z,84.90
2022-11-23T00:38:02.496Z,84.90
2022-11-23T00:40:36.462Z,84.90
2022-11-23T00:43:15.362Z,84.80
2022-11-23T00:48:36.259Z,84.90
2022-11-23T00:51:04.526Z,84.90
2022-11-23T00:56:46.589Z,84.90
2022-11-23T00:59:26.556Z,84.80
2022-11-23T01:05:04.112Z,84.80
2022-11-23T01:07:36.757Z,84.80
2022-11-23T01:10:28.154Z,84.70
2022-11-23T01:15:59.409Z,84.80
2022-11-23T01:18:47.328Z,84.70
2022-11-23T02:32:26.627Z,84.30
2022-11-23T02:34:55.504Z,84.30
2022-11-23T02:37:22.607Z,84.20
2022-11-23T02:46:10.441Z,84.30
2022-11-23T02:51:43.030Z,84.20
2022-11-23T02:54:25.798Z,84.10
2022-11-23T02:57:04.382Z,84.10
2022-11-23T03:05:43.954Z,83.90
2022-11-23T03:08:11.320Z,84.00
2022-11-23T03:10:40.176Z,83.90
2022-11-23T03:21:36.341Z,83.70
2022-11-23T03:24:09.213Z,83.70
2022-11-23T03:26:37.414Z,83.60
2022-11-23T03:29:07.550Z,83.40
2022-11-23T03:34:29.198Z,83.50
2022-11-23T03:36:56.270Z,83.40
2022-11-23T03:39:23.199Z,83.40
2022-11-23T03:41:49.876Z,83.40
2022-11-23T03:44:20.064Z,83.40
2022-11-23T03:47:08.705Z,83.30
2022-11-23T03:49:41.139Z,83.30
2022-11-23T03:52:11.285Z,83.30
2022-11-23T03:54:42.054Z,83.30
2022-11-23T03:57:15.019Z,83.30
2022-11-23T03:59:52.636Z,83.40
2022-11-23T04:02:22.344Z,83.30
2022-11-23T04:05:05.996Z,83.20
2022-11-23T04:07:36.649Z,83.20
2022-11-23T04:10:10.155Z,83.20
2022-11-23T04:12:41.371Z,83.20
2022-11-23T04:15:17.334Z,83.10
2022-11-23T04:17:47.401Z,83.20
2022-11-23T04:20:14.676Z,83.10
2022-11-23T04:22:41.341Z,83.10
2022-11-23T04:25:12.119Z,83.10
2022-11-23T04:27:41.957Z,83.20
2022-11-23T04:30:11.149Z,83.20
2022-11-23T04:32:39.179Z,83.00
2022-11-23T04:35:13.290Z,83.00
2022-11-23T04:37:39.988Z,83.00
2022-11-23T04:40:07.265Z,82.90
2022-11-23T04:42:33.981Z,83.00
2022-11-23T04:45:01.346Z,83.00
2022-11-23T04:50:11.310Z,82.90
2022-11-23T04:53:18.063Z,82.80
2022-11-23T04:58:48.772Z,82.90
2022-11-23T05:01:16.717Z,82.90
2022-11-23T05:03:43.394Z,82.80
2022-11-23T05:06:10.398Z,82.70
2022-11-23T05:08:37.185Z,83.50
2022-11-23T05:11:03.854Z,82.80
2022-11-23T05:13:30.488Z,82.70
2022-11-23T05:15:57.291Z,82.60
2022-11-23T05:18:23.923Z,82.50
2022-11-23T05:20:50.496Z,82.50
2022-11-23T05:23:17.141Z,82.50
2022-11-23T05:28:41.761Z,82.50
2022-11-23T05:33:55.056Z,82.40
2022-11-23T05:36:24.647Z,82.30
2022-11-23T05:48:16.619Z,82.30
2022-11-23T05:50:54.065Z,82.30
2022-11-23T05:53:22.250Z,82.30
2022-11-23T05:55:49.623Z,82.30
2022-11-23T05:58:16.429Z,82.20
2022-11-23T06:00:48.750Z,82.20
2022-11-23T06:03:26.711Z,82.10
2022-11-23T06:05:59.168Z,82.80
2022-11-23T06:08:25.801Z,82.00
2022-11-23T06:10:59.064Z,82.00
2022-11-23T06:13:30.411Z,81.90
2022-11-23T06:16:08.437Z,81.80
2022-11-23T06:18:38.810Z,81.80
2022-11-23T06:21:20.896Z,81.70
2022-11-23T06:23:50.630Z,81.70
2022-11-23T06:26:28.559Z,81.40
2022-11-23T06:28:57.961Z,81.30
2022-11-23T06:31:31.019Z,81.30
2022-11-23T06:34:08.845Z,81.20
2022-11-23T06:36:37.799Z,81.20
2022-11-23T06:39:04.646Z,81.30
2022-11-23T06:41:32.693Z,81.20
2022-11-23T06:43:59.417Z,81.20
2022-11-23T06:46:26.521Z,81.20
2022-11-23T06:51:54.504Z,81.00
2022-11-23T06:54:25.984Z,80.90
2022-11-23T06:56:53.813Z,80.80
2022-11-23T06:59:20.398Z,80.80
2022-11-23T07:01:47.149Z,80.70
2022-11-23T07:04:13.765Z,80.70
2022-11-23T07:06:41.578Z,80.70
2022-11-23T07:09:09.340Z,80.70
2022-11-23T07:11:35.991Z,80.50
2022-11-23T07:14:02.639Z,80.50
2022-11-23T07:16:29.410Z,80.50
2022-11-23T07:18:55.958Z,80.40
2022-11-23T07:21:22.529Z,80.40
2022-11-23T07:23:49.182Z,80.40
2022-11-23T07:26:15.968Z,80.40
2022-11-23T07:28:42.613Z,80.50
2022-11-23T07:31:09.210Z,80.50
2022-11-23T07:33:35.864Z,80.60
2022-11-23T07:36:03.752Z,80.60
2022-11-23T07:38:30.739Z,80.70
2022-11-23T07:40:58.944Z,80.70
2022-11-23T07:43:25.562Z,81.60
2022-11-23T07:45:54.729Z,80.90
2022-11-23T07:48:21.301Z,80.90
2022-11-23T07:50:47.934Z,81.00
2022-11-23T07:53:14.546Z,81.00
2022-11-23T07:55:41.102Z,81.10
2022-11-23T07:58:07.706Z,81.10
2022-11-23T08:00:34.254Z,81.20
2022-11-23T08:05:47.490Z,81.20
2022-11-23T08:08:14.175Z,81.30
2022-11-23T08:10:46.056Z,81.40
2022-11-23T08:13:14.060Z,81.30
2022-11-23T08:15:40.729Z,81.40
2022-11-23T08:18:07.303Z,81.40
2022-11-23T08:20:33.855Z,81.40
2022-11-23T08:23:00.605Z,81.40
2022-11-23T08:25:28.687Z,81.30
2022-11-23T08:28:00.266Z,81.30
2022-11-23T08:30:27.925Z,81.30
2022-11-23T08:32:54.697Z,81.50
2022-11-23T08:35:21.517Z,81.50
2022-11-23T08:37:48.184Z,81.50
2022-11-23T08:40:16.048Z,81.50
2022-11-23T08:42:46.155Z,81.50
2022-11-23T08:45:12.894Z,81.60
2022-11-23T08:47:39.507Z,82.40
2022-11-23T08:50:06.572Z,81.60
2022-11-23T08:52:33.133Z,81.70
2022-11-23T08:54:59.733Z,81.60
2022-11-23T08:57:27.572Z,81.80
2022-11-23T08:59:54.165Z,81.70
2022-11-23T09:02:20.822Z,81.70
2022-11-23T09:04:48.021Z,81.40
2022-11-23T09:07:14.703Z,81.50
2022-11-23T09:09:41.295Z,81.20
2022-11-23T09:12:07.933Z,81.20
2022-11-23T09:14:34.928Z,81.10
2022-11-23T09:17:02.559Z,81.00
2022-11-23T09:19:29.346Z,81.00
2022-11-23T09:21:55.905Z,80.70
2022-11-23T09:24:23.204Z,80.60
2022-11-23T09:26:49.843Z,80.50
2022-11-23T09:29:16.389Z,81.20
2022-11-23T09:31:42.973Z,81.30
2022-11-23T09:34:13.449Z,80.30
2022-11-23T09:36:40.078Z,79.10
2022-11-23T09:39:06.671Z,78.70
2022-11-23T09:41:44.949Z,79.10
2022-11-23T09:44:38.339Z,79.00
2022-11-23T09:47:14.418Z,78.50
2022-11-23T09:49:59.389Z,78.40
2022-11-23T09:52:26.421Z,77.80
2022-11-23T09:54:56.931Z,76.70
2022-11-23T09:57:31.435Z,75.80
2022-11-23T10:00:08.463Z,76.10
2022-11-23T10:02:40.337Z,75.40
2022-11-23T10:05:07.936Z,75.60
2022-11-23T10:07:55.141Z,74.00
2022-11-23T10:10:25.122Z,72.80
2022-11-23T10:12:57.709Z,71.80
2022-11-23T10:15:33.677Z,72.30
2022-11-23T10:18:23.966Z,72.20
2022-11-23T10:21:11.786Z,71.80
2022-11-23T10:23:56.285Z,71.80
2022-11-23T10:26:35.294Z,72.50
2022-11-23T10:29:30.706Z,72.50
2022-11-23T10:31:58.190Z,72.80
2022-11-23T10:34:58.310Z,72.90
2022-11-23T10:37:24.905Z,73.50
2022-11-23T10:39:51.497Z,73.40
2022-11-23T10:42:43.332Z,73.30
2022-11-23T10:45:24.805Z,73.20
2022-11-23T10:47:59.591Z,72.70
2022-11-23T10:50:37.394Z,72.70
2022-11-23T10:53:22.253Z,72.60
2022-11-23T10:55:56.250Z,72.90
2022-11-23T10:58:45.994Z,72.40
2022-11-23T11:01:13.824Z,72.30
2022-11-23T11:03:40.686Z,72.30
2022-11-23T11:06:09.560Z,72.20
2022-11-23T11:09:17.934Z,72.40
2022-11-23T11:11:52.154Z,72.10
2022-11-23T11:14:23.420Z,72.10
2022-11-23T11:16:52.671Z,72.70
2022-11-23T11:19:35.917Z,72.00
2022-11-23T11:22:24.618Z,71.70
2022-11-23T11:24:51.409Z,71.90
2022-11-23T11:27:25.362Z,72.00
2022-11-23T11:29:54.974Z,71.90
2022-11-23T11:32:40.316Z,72.00
2022-11-23T11:35:31.470Z,72.10
2022-11-23T11:38:08.394Z,72.20
2022-11-23T11:40:40.173Z,72.10
2022-11-23T11:43:40.108Z,72.50
2022-11-23T11:46:30.174Z,73.00
2022-11-23T11:49:13.426Z,72.80
2022-11-23T11:51:54.583Z,72.00
2022-11-23T11:54:42.434Z,71.80
2022-11-23T11:57:28.122Z,72.20
2022-11-23T11:59:57.733Z,73.30
2022-11-23T12:02:36.998Z,72.70
2022-11-23T12:05:32.720Z,71.70
2022-11-23T12:08:25.797Z,72.10
2022-11-23T12:10:59.079Z,71.70
2022-11-23T12:13:34.585Z,71.80
2022-11-23T12:16:15.441Z,69.60
2022-11-23T12:19:00.257Z,69.40
2022-11-23T12:21:57.437Z,69.20
2022-11-23T12:24:39.171Z,69.10
2022-11-23T12:27:38.649Z,69.40
2022-11-23T12:30:25.949Z,69.30
2022-11-23T12:33:21.659Z,69.40
2022-11-23T12:35:54.476Z,69.80
2022-11-23T12:38:47.970Z,69.50
2022-11-23T12:41:24.986Z,69.20
2022-11-23T12:44:02.702Z,69.30
2022-11-23T12:46:45.893Z,69.80
2022-11-23T12:49:38.748Z,69.70
2022-11-23T12:52:27.040Z,69.40
2022-11-23T12:54:57.989Z,69.80
2022-11-23T12:57:46.794Z,69.60
2022-11-23T13:00:18.696Z,69.70
2022-11-23T13:02:51.262Z,70.00
2022-11-23T13:05:48.238Z,69.80
2022-11-23T13:08:26.892Z,69.80
2022-11-23T13:11:06.846Z,69.90
2022-11-23T13:13:51.735Z,69.50
2022-11-23T13:16:55.480Z,69.80
2022-11-23T13:19:37.350Z,69.70
2022-11-23T13:22:08.253Z,69.90
2022-11-23T13:24:38.624Z,70.10
2022-11-23T13:27:14.323Z,70.40
2022-11-23T13:29:49.701Z,70.60
2022-11-23T13:32:46.114Z,70.60
2022-11-23T13:35:18.748Z,70.60
2022-11-23T13:37:57.299Z,70.60
2022-11-23T13:40:34.984Z,70.70
2022-11-23T13:43:08.538Z,70.60
2022-11-23T13:45:36.579Z,70.70
2022-11-23T13:48:04.773Z,70.60
2022-11-23T13:50:32.539Z,70.60
2022-11-23T13:53:00.477Z,70.60
2022-11-23T13:55:36.263Z,71.10
2022-11-23T13:58:22.110Z,71.70
2022-11-23T14:00:52.877Z,72.20
2022-11-23T14:03:52.440Z,72.70
2022-11-23T14:06:28.578Z,73.30
2022-11-23T14:09:19.213Z,73.90
2022-11-23T14:12:03.538Z,74.50
2022-11-23T14:14:42.753Z,75.10
2022-11-23T14:17:34.482Z,75.40
2022-11-23T14:20:19.070Z,75.90
2022-11-23T14:22:48.439Z,76.10
2022-11-23T14:25:51.777Z,76.40
2022-11-23T14:28:41.444Z,76.80
2022-11-23T14:31:32.838Z,77.20
2022-11-23T14:34:10.734Z,77.20
2022-11-23T14:36:49.110Z,77.50
2022-11-23T14:39:39.412Z,77.80
2022-11-23T14:42:13.756Z,78.10
2022-11-23T14:44:42.305Z,78.30
2022-11-23T14:47:10.994Z,78.40
2022-11-23T14:49:48.775Z,78.60
2022-11-23T14:52:27.330Z,78.70
2022-11-23T14:54:57.179Z,78.70
2022-11-23T14:57:27.855Z,78.90
2022-11-23T14:59:58.007Z,78.90
2022-11-23T15:02:45.100Z,79.00
2022-11-23T15:05:26.557Z,79.30
2022-11-23T15:08:04.149Z,79.40
2022-11-23T15:10:53.352Z,79.60
2022-11-23T15:13:24.016Z,79.70
2022-11-23T15:16:14.183Z,79.80
2022-11-23T15:18:42.396Z,79.90
2022-11-23T15:21:14.400Z,80.00
2022-11-23T15:23:44.184Z,80.00
2022-11-23T15:29:38.679Z,80.30
2022-11-23T15:32:31.891Z,80.40
2022-11-23T15:35:01.664Z,80.60
2022-11-23T15:37:29.259Z,80.70
2022-11-23T15:39:56.350Z,80.70
2022-11-23T15:42:25.574Z,80.90
2022-11-23T15:44:53.104Z,81.00
2022-11-23T15:47:28.041Z,81.10
2022-11-23T15:50:03.594Z,81.10
2022-11-23T15:52:35.592Z,81.20
2022-11-23T15:55:10.080Z,81.20
2022-11-23T15:57:39.399Z,81.30
2022-11-23T16:00:07.567Z,81.30
2022-11-23T16:02:34.838Z,81.30
2022-11-23T16:05:15.125Z,81.50
2022-11-23T16:07:57.747Z,81.60
2022-11-23T16:10:35.026Z,81.70
2022-11-23T16:13:06.072Z,81.70
2022-11-23T16:15:49.598Z,81.80
2022-11-23T16:18:21.668Z,81.90
2022-11-23T16:20:59.857Z,81.90
2022-11-23T16:23:36.215Z,82.20
2022-11-23T16:26:05.536Z,82.00
2022-11-23T16:28:37.688Z,82.10
2022-11-23T16:31:24.581Z,82.10
2022-11-23T16:33:51.185Z,82.20
2022-11-23T16:36:17.733Z,82.30
2022-11-23T16:38:45.174Z,82.20
2022-11-23T16:41:12.152Z,82.30
2022-11-23T16:43:38.892Z,82.40
2022-11-23T16:46:05.749Z,82.50
2022-11-23T16:48:42.290Z,82.50
2022-11-23T16:51:14.074Z,82.40
2022-11-23T16:54:12.480Z,82.50
2022-11-23T16:56:31.619Z,82.60
2022-11-23T16:58:58.293Z,82.50
2022-11-23T17:01:30.032Z,82.50
2022-11-23T17:03:56.730Z,82.60
2022-11-23T17:06:23.404Z,82.60
2022-11-23T17:08:56.601Z,82.70
2022-11-23T17:11:27.821Z,82.70
2022-11-23T17:13:55.858Z,82.80
2022-11-23T17:16:25.298Z,82.80
2022-11-23T17:18:52.084Z,82.80
2022-11-23T17:21:19.430Z,82.80
2022-11-23T17:23:46.735Z,82.70
2022-11-23T17:26:34.029Z,82.80
2022-11-23T17:29:03.439Z,82.90
2022-11-23T17:31:30.253Z,82.80
2022-11-23T17:33:56.911Z,82.80
2022-11-23T17:36:25.389Z,82.80
2022-11-23T17:38:52.282Z,82.80
2022-11-23T17:41:18.899Z,82.90
2022-11-23T17:43:45.495Z,82.90
2022-11-23T17:46:20.842Z,83.00
2022-11-23T17:48:58.907Z,83.00
2022-11-23T17:51:25.771Z,83.00
2022-11-23T17:53:52.368Z,83.00
2022-11-23T17:56:20.803Z,82.90
2022-11-23T17:58:47.625Z,82.90
2022-11-23T18:01:16.027Z,82.90
2022-11-23T18:03:43.997Z,82.90
2022-11-23T18:06:22.086Z,82.90
2022-11-23T18:08:50.246Z,82.90
2022-11-23T18:11:17.665Z,83.00
2022-11-23T18:13:44.472Z,83.10
2022-11-23T18:16:11.315Z,83.10
2022-11-23T18:18:38.193Z,83.10
2022-11-23T18:21:06.093Z,83.10
2022-11-23T18:23:33.234Z,83.20
2022-11-23T18:26:04.589Z,83.20
2022-11-23T18:28:31.554Z,83.20
2022-11-23T18:30:58.138Z,83.20
2022-11-23T18:33:24.796Z,83.00
2022-11-23T18:35:51.607Z,83.10
2022-11-23T18:38:18.262Z,83.10
2022-11-23T18:40:44.908Z,83.10
2022-11-23T18:43:11.504Z,83.10
2022-11-23T18:45:38.121Z,83.80
2022-11-23T18:48:05.088Z,83.00
2022-11-23T18:50:31.625Z,83.00
2022-11-23T18:52:58.454Z,83.00
2022-11-23T18:55:25.043Z,82.90
2022-11-23T18:57:54.979Z,82.90
2022-11-23T19:00:22.248Z,82.90
2022-11-23T19:02:56.250Z,82.90
2022-11-23T19:05:23.639Z,82.90
2022-11-23T19:07:51.406Z,82.90
2022-11-23T19:10:19.305Z,82.90
2022-11-23T19:12:46.011Z,82.90
2022-11-23T19:15:12.667Z,82.90
2022-11-23T19:17:39.567Z,82.90
2022-11-23T19:20:08.290Z,82.90
2022-11-23T19:22:35.804Z,82.90
2022-11-23T19:25:02.580Z,82.90
2022-11-23T19:27:29.232Z,82.90
2022-11-23T19:29:55.818Z,83.00
2022-11-23T19:32:22.464Z,82.90
2022-11-23T19:34:49.091Z,83.00
2022-11-23T19:37:15.670Z,83.00
2022-11-23T19:39:42.234Z,83.00
2022-11-23T19:42:08.997Z,82.90
2022-11-23T19:44:35.569Z,82.90
2022-11-23T19:47:04.381Z,82.90
2022-11-23T19:49:33.020Z,82.90
2022-11-23T19:51:59.787Z,82.90
2022-11-23T19:54:26.379Z,83.00
2022-11-23T19:56:53.088Z,83.00
2022-11-23T19:59:19.641Z,83.00
2022-11-23T20:01:46.324Z,82.90
2022-11-23T20:04:12.973Z,82.90
2022-11-23T20:06:42.064Z,82.90
2022-11-23T20:09:16.590Z,82.90
2022-11-23T20:11:48.027Z,82.90
2022-11-23T20:14:17.157Z,82.90
2022-11-23T20:16:43.840Z,83.00
2022-11-23T20:19:11.066Z,83.10
2022-11-23T20:21:38.151Z,83.10
2022-11-23T20:24:11.482Z,83.10
2022-11-23T20:26:38.608Z,83.00
2022-11-23T20:29:06.166Z,83.10
2022-11-23T20:31:33.605Z,83.10
2022-11-23T20:34:01.907Z,83.10
2022-11-23T20:36:33.227Z,83.10
2022-11-23T20:39:03.922Z,83.20
2022-11-23T20:41:34.097Z,83.10
2022-11-23T20:44:11.774Z,83.10
2022-11-23T20:47:01.181Z,83.10
2022-11-23T20:49:25.568Z,83.10
2022-11-23T20:51:52.161Z,83.20
2022-11-23T20:54:18.953Z,83.20
2022-11-23T20:56:45.556Z,83.30
2022-11-23T20:59:12.632Z,83.40
2022-11-23T21:01:42.109Z,83.40
2022-11-23T21:04:09.037Z,83.50
2022-11-23T21:06:39.566Z,83.50
2022-11-23T21:09:08.754Z,83.50
2022-11-23T21:11:53.940Z,83.50
2022-11-23T21:14:24.292Z,83.50
2022-11-23T21:16:55.987Z,83.50
2022-11-23T21:19:26.195Z,83.60
2022-11-23T21:21:53.083Z,83.60
2022-11-23T21:24:20.137Z,83.60
2022-11-23T21:26:48.421Z,83.70
2022-11-23T21:29:18.902Z,83.70
2022-11-23T21:31:47.268Z,83.60
2022-11-23T21:34:21.422Z,83.60
2022-11-23T21:36:49.102Z,83.70
2022-11-23T21:39:16.445Z,83.70
2022-11-23T21:41:43.564Z,83.70
2022-11-23T21:44:11.124Z,83.70
2022-11-23T21:46:39.465Z,83.80
2022-11-23T21:49:06.785Z,83.80
2022-11-23T21:51:34.038Z,83.60
2022-11-23T21:54:02.637Z,83.60
2022-11-23T21:56:29.974Z,83.80
2022-11-23T21:58:57.553Z,83.80
2022-11-23T22:01:32.725Z,83.80
2022-11-23T22:04:09.082Z,83.80
2022-11-23T22:06:36.808Z,83.80
2022-11-23T22:09:04.959Z,83.90
2022-11-23T22:11:33.946Z,83.90
2022-11-23T22:14:04.699Z,83.90
2022-11-23T22:16:33.925Z,83.90
2022-11-23T22:19:01.194Z,83.90
2022-11-23T22:21:35.895Z,84.00
2022-11-23T22:24:03.523Z,84.00
2022-11-23T22:26:30.201Z,83.90
2022-11-23T22:28:57.264Z,84.00
2022-11-23T22:31:27.620Z,84.00
2022-11-23T22:33:54.286Z,83.90
2022-11-23T22:36:23.149Z,83.90
2022-11-23T22:39:01.383Z,84.00
2022-11-23T22:41:29.663Z,83.90
2022-11-23T22:43:56.459Z,83.90
2022-11-23T22:46:24.330Z,83.90
2022-11-23T22:48:52.151Z,83.80
2022-11-23T22:51:23.406Z,83.80
2022-11-23T22:53:54.640Z,83.90
2022-11-23T22:56:21.876Z,84.00
2022-11-23T22:58:49.127Z,83.90
2022-11-23T23:01:18.292Z,83.90
2022-11-23T23:03:45.836Z,84.00
2022-11-23T23:06:20.723Z,84.00
2022-11-23T23:08:48.270Z,84.10
2022-11-23T23:11:15.406Z,84.20
2022-11-23T23:13:42.267Z,84.10
2022-11-23T23:16:11.809Z,84.00
2022-11-23T23:18:39.443Z,84.00
2022-11-23T23:21:11.347Z,84.10
2022-11-23T23:23:44.116Z,84.10
2022-11-23T23:26:11.883Z,84.00
2022-11-23T23:28:38.615Z,84.00
2022-11-23T23:31:08.133Z,84.70
2022-11-23T23:33:35.207Z,84.00
2022-11-23T23:36:10.221Z,83.90
2022-11-23T23:38:37.302Z,83.90
2022-11-23T23:41:05.505Z,83.90
2022-11-23T23:43:32.205Z,83.90
2022-11-23T23:46:00.746Z,83.90
2022-11-23T23:48:35.710Z,84.60
2022-11-23T23:51:16.681Z,83.90
2022-11-23T23:53:44.555Z,83.90
2022-11-23T23:56:15.311Z,83.90
2022-11-23T23:58:42.620Z,84.30
